createdAt,value
2018-05-31T00:01:08.168Z,101131.40
2018-05-31T00:03:34.123Z,101127.91
2018-05-31T00:06:00.562Z,101128.61
2018-05-31T00:08:26.620Z,101131.28
2018-05-31T00:10:52.610Z,101129.25
2018-05-31T00:13:18.495Z,101131.81
2018-05-31T00:15:44.404Z,101124.86
2018-05-31T00:18:10.381Z,101128.27
2018-05-31T00:20:36.469Z,101126.86
2018-05-31T00:23:02.360Z,101129.59
2018-05-31T00:25:29.271Z,101124.50
2018-05-31T00:27:55.205Z,101123.27
2018-05-31T00:30:21.088Z,101126.26
2018-05-31T00:32:47.171Z,101120.78
2018-05-31T00:35:13.052Z,101107.96
2018-05-31T00:37:38.942Z,101107.44
2018-05-31T00:40:04.912Z,101103.45
2018-05-31T00:42:30.855Z,101110.01
2018-05-31T00:44:56.879Z,101105.22
2018-05-31T00:47:23.240Z,101095.20
2018-05-31T00:49:49.166Z,101095.17
2018-05-31T00:52:15.313Z,101090.45
2018-05-31T00:54:41.903Z,101092.70
2018-05-31T00:57:07.937Z,101091.95
2018-05-31T00:59:33.849Z,101099.90
2018-05-31T01:01:59.808Z,101089.35
2018-05-31T01:04:25.700Z,101082.83
2018-05-31T01:06:51.590Z,101078.91
2018-05-31T01:09:17.754Z,101069.50
2018-05-31T01:11:43.673Z,101067.86
2018-05-31T01:14:09.571Z,101069.66
2018-05-31T01:16:35.703Z,101070.63
2018-05-31T01:19:01.591Z,101072.62
2018-05-31T01:21:29.334Z,101075.72
2018-05-31T01:23:55.570Z,101073.16
2018-05-31T01:26:21.498Z,101075.02
2018-05-31T01:28:47.419Z,101075.45
2018-05-31T01:31:14.218Z,101072.86
2018-05-31T01:33:40.261Z,101068.53
2018-05-31T01:36:06.168Z,101068.16
2018-05-31T01:38:32.116Z,101069.66
2018-05-31T01:40:58.033Z,101068.80
2018-05-31T01:43:23.934Z,101067.73
2018-05-31T01:45:50.030Z,101068.03
2018-05-31T01:48:15.919Z,101065.08
2018-05-31T01:50:41.840Z,101072.31
2018-05-31T01:53:08.119Z,101069.45
2018-05-31T01:55:34.068Z,101063.47
2018-05-31T01:58:00.117Z,101063.20
2018-05-31T02:00:26.071Z,101063.73
2018-05-31T02:02:52.006Z,101066.02
2018-05-31T02:05:17.919Z,101067.95
2018-05-31T02:07:43.872Z,101072.03
2018-05-31T02:10:09.899Z,101068.04
2018-05-31T02:12:35.841Z,101063.66
2018-05-31T02:15:01.995Z,101067.44
2018-05-31T02:17:27.905Z,101069.36
2018-05-31T02:19:53.832Z,101073.84
2018-05-31T02:22:20.627Z,101067.63
2018-05-31T02:24:46.537Z,101067.32
2018-05-31T02:27:12.472Z,101069.55
2018-05-31T02:29:38.424Z,101069.20
2018-05-31T02:32:04.369Z,101065.31
2018-05-31T02:34:30.447Z,101072.83
2018-05-31T02:36:56.384Z,101076.51
2018-05-31T02:39:22.309Z,101070.73
2018-05-31T02:41:48.195Z,101073.45
2018-05-31T02:44:14.162Z,101073.94
2018-05-31T02:46:40.200Z,101072.95
2018-05-31T02:49:06.104Z,101075.77
2018-05-31T02:51:32.365Z,101077.87
2018-05-31T02:53:58.321Z,101080.93
2018-05-31T02:56:24.277Z,101082.69
2018-05-31T02:58:50.359Z,101090.57
2018-05-31T03:01:16.309Z,101085.28
2018-05-31T03:03:42.202Z,101079.63
2018-05-31T03:06:08.145Z,101073.98
2018-05-31T03:08:34.081Z,101075.30
2018-05-31T03:11:00.127Z,101069.52
2018-05-31T03:13:26.060Z,101073.02
2018-05-31T03:15:51.968Z,101069.03
2018-05-31T03:18:18.977Z,101071.66
2018-05-31T03:20:44.911Z,101074.95
2018-05-31T03:23:10.929Z,101067.87
2018-05-31T03:25:36.982Z,101069.88
2018-05-31T03:28:02.927Z,101068.95
2018-05-31T03:30:28.831Z,101068.27
2018-05-31T03:32:54.740Z,101074.02
2018-05-31T03:35:20.824Z,101074.75
2018-05-31T03:37:46.699Z,101081.61
2018-05-31T03:40:12.667Z,101076.22
2018-05-31T03:42:38.619Z,101077.83
2018-05-31T03:45:04.542Z,101078.09
2018-05-31T03:47:30.649Z,101074.94
2018-05-31T03:49:56.581Z,101083.69
2018-05-31T03:52:22.491Z,101081.33
2018-05-31T03:54:48.379Z,101088.75
2018-05-31T03:57:14.308Z,101087.78
2018-05-31T03:59:40.311Z,101092.97
2018-05-31T04:02:06.253Z,101091.37
2018-05-31T04:04:32.203Z,101088.82
2018-05-31T04:06:58.118Z,101082.63
2018-05-31T04:09:24.016Z,101081.11
2018-05-31T04:11:50.126Z,101082.97
2018-05-31T04:14:16.024Z,101082.27
2018-05-31T04:16:41.916Z,101084.86
2018-05-31T04:19:07.878Z,101092.58
2018-05-31T04:21:33.797Z,101089.75
2018-05-31T04:23:59.834Z,101093.47
2018-05-31T04:26:25.787Z,101100.22
2018-05-31T04:28:51.672Z,101102.64
2018-05-31T04:31:17.587Z,101100.30
2018-05-31T04:33:43.610Z,101102.30
2018-05-31T04:36:09.624Z,101098.45
2018-05-31T04:38:35.546Z,101095.97
2018-05-31T04:41:01.513Z,101088.71
2018-05-31T04:43:27.408Z,101085.41
2018-05-31T04:45:53.311Z,101087.14
2018-05-31T04:48:19.378Z,101091.47
2018-05-31T04:50:45.318Z,101100.18
2018-05-31T04:53:11.210Z,101105.51
2018-05-31T04:55:37.181Z,101103.05
2018-05-31T04:58:03.092Z,101099.30
2018-05-31T05:00:29.137Z,101098.81
2018-05-31T05:02:55.429Z,101101.36
2018-05-31T05:05:21.308Z,101103.69
2018-05-31T05:07:47.231Z,101100.88
2018-05-31T05:10:14.009Z,101100.56
2018-05-31T05:12:40.108Z,101101.86
2018-05-31T05:15:06.005Z,101099.39
2018-05-31T05:17:31.964Z,101094.44
2018-05-31T05:19:57.846Z,101106.53
2018-05-31T05:22:23.741Z,101104.91
2018-05-31T05:24:49.820Z,101097.70
2018-05-31T05:27:15.721Z,101100.23
2018-05-31T05:29:41.595Z,101104.71
2018-05-31T05:32:07.543Z,101105.89
2018-05-31T05:34:33.456Z,101106.31
2018-05-31T05:37:00.088Z,101110.52
2018-05-31T05:39:26.068Z,101098.15
2018-05-31T05:41:51.976Z,101102.55
2018-05-31T05:44:17.897Z,101109.41
2018-05-31T05:46:43.831Z,101107.97
2018-05-31T05:49:09.862Z,101103.44
2018-05-31T05:51:35.743Z,101104.75
2018-05-31T05:54:01.705Z,101112.94
2018-05-31T05:56:27.642Z,101113.52
2018-05-31T05:58:53.589Z,101118.62
2018-05-31T06:01:19.689Z,101116.38
2018-05-31T06:03:45.593Z,101123.44
2018-05-31T06:06:11.472Z,101125.91
2018-05-31T06:08:37.499Z,101122.13
2018-05-31T06:11:03.463Z,101121.37
2018-05-31T06:13:30.156Z,101122.50
2018-05-31T06:15:56.103Z,101120.98
2018-05-31T06:18:22.024Z,101121.41
2018-05-31T06:20:47.933Z,101127.20
2018-05-31T06:23:13.935Z,101122.58
2018-05-31T06:25:40.024Z,101128.27
2018-05-31T06:28:05.911Z,101121.25
2018-05-31T06:30:31.863Z,101131.30
2018-05-31T06:32:58.309Z,101127.30
2018-05-31T06:35:24.209Z,101130.39
2018-05-31T06:37:50.287Z,101128.17
2018-05-31T06:40:16.163Z,101134.45
2018-05-31T06:42:42.061Z,101132.77
2018-05-31T06:45:08.149Z,101136.32
2018-05-31T06:47:34.088Z,101130.62
2018-05-31T06:50:00.141Z,101136.09
2018-05-31T06:52:26.099Z,101136.91
2018-05-31T06:54:52.026Z,101135.31
2018-05-31T06:57:17.936Z,101138.88
2018-05-31T06:59:43.869Z,101136.34
2018-05-31T07:02:09.925Z,101138.67
2018-05-31T07:04:35.787Z,101135.39
2018-05-31T07:07:01.717Z,101133.68
2018-05-31T07:09:27.597Z,101134.20
2018-05-31T07:11:53.499Z,101136.38
2018-05-31T07:14:20.344Z,101132.64
2018-05-31T07:16:46.275Z,101134.31
2018-05-31T07:19:12.143Z,101134.68
2018-05-31T07:21:38.096Z,101138.31
2018-05-31T07:24:03.987Z,101136.22
2018-05-31T07:26:30.098Z,101135.13
2018-05-31T07:28:56.043Z,101136.41
2018-05-31T07:31:21.944Z,101136.84
2018-05-31T07:33:47.884Z,101136.55
2018-05-31T07:36:13.827Z,101146.83
2018-05-31T07:38:39.922Z,101148.73
2018-05-31T07:41:05.865Z,101144.34
2018-05-31T07:43:31.807Z,101138.55
2018-05-31T07:45:57.703Z,101138.52
2018-05-31T07:48:23.585Z,101145.64
2018-05-31T07:50:50.193Z,101144.78
2018-05-31T07:53:16.106Z,101144.27
2018-05-31T07:55:41.983Z,101141.51
2018-05-31T07:58:08.101Z,101147.17
2018-05-31T08:00:33.905Z,101150.01
2018-05-31T08:02:59.974Z,101147.89
2018-05-31T08:05:26.311Z,101154.30
2018-05-31T08:07:52.210Z,101154.12
2018-05-31T08:10:18.255Z,101152.37
2018-05-31T08:12:44.259Z,101151.69
2018-05-31T08:15:10.284Z,101154.81
2018-05-31T08:17:36.227Z,101153.64
2018-05-31T08:20:02.512Z,101157.54
2018-05-31T08:22:28.399Z,101164.91
2018-05-31T08:24:54.934Z,101164.73
2018-05-31T08:27:21.049Z,101158.66
2018-05-31T08:29:46.944Z,101152.95
2018-05-31T08:32:12.819Z,101152.38
2018-05-31T08:34:38.744Z,101157.28
2018-05-31T08:37:04.696Z,101154.03
2018-05-31T08:39:30.735Z,101155.21
2018-05-31T08:41:56.679Z,101151.66
2018-05-31T08:44:22.572Z,101150.64
2018-05-31T08:46:48.487Z,101152.41
2018-05-31T08:49:14.413Z,101146.00
2018-05-31T08:51:40.863Z,101146.67
2018-05-31T08:54:06.752Z,101149.86
2018-05-31T08:56:32.909Z,101155.77
2018-05-31T08:58:58.793Z,101151.11
2018-05-31T09:01:24.711Z,101153.89
2018-05-31T09:03:50.795Z,101154.59
2018-05-31T09:06:16.707Z,101145.73
2018-05-31T09:08:42.640Z,101143.73
2018-05-31T09:11:08.971Z,101142.72
2018-05-31T09:13:34.889Z,101141.75
2018-05-31T09:16:00.913Z,101135.42
2018-05-31T09:18:26.881Z,101138.56
2018-05-31T09:20:53.733Z,101129.02
2018-05-31T09:23:19.629Z,101130.08
2018-05-31T09:25:45.567Z,101131.06
2018-05-31T09:28:12.178Z,101129.24
2018-05-31T09:30:38.092Z,101133.76
2018-05-31T09:33:04.045Z,101127.22
2018-05-31T09:35:29.923Z,101134.31
2018-05-31T09:37:55.820Z,101129.52
2018-05-31T09:40:21.921Z,101129.07
2018-05-31T09:42:47.825Z,101118.17
2018-05-31T09:45:13.720Z,101132.56
2018-05-31T09:47:39.693Z,101126.00
2018-05-31T09:50:05.613Z,101127.11
2018-05-31T09:52:31.680Z,101126.42
2018-05-31T09:54:57.633Z,101131.92
2018-05-31T09:57:23.595Z,101122.41
2018-05-31T09:59:49.475Z,101124.45
2018-05-31T10:02:15.438Z,101123.02
2018-05-31T10:04:41.504Z,101115.41
2018-05-31T10:07:07.407Z,101117.39
2018-05-31T10:09:33.673Z,101111.75
2018-05-31T10:12:01.057Z,101116.77
2018-05-31T10:14:26.957Z,101107.14
2018-05-31T10:16:53.074Z,101115.24
2018-05-31T10:19:18.975Z,101105.91
2018-05-31T10:21:45.869Z,101104.13
2018-05-31T10:24:11.848Z,101102.80
2018-05-31T10:26:37.790Z,101101.40
2018-05-31T10:29:03.861Z,101099.55
2018-05-31T10:31:29.801Z,101099.28
2018-05-31T10:33:55.671Z,101089.83
2018-05-31T10:36:21.596Z,101090.09
2018-05-31T10:38:47.519Z,101088.80
2018-05-31T10:41:13.579Z,101086.22
2018-05-31T10:43:39.472Z,101094.90
2018-05-31T10:46:05.420Z,101078.93
2018-05-31T10:48:31.288Z,101083.38
2018-05-31T10:50:57.171Z,101080.92
2018-05-31T10:53:23.454Z,101084.48
2018-05-31T10:55:49.816Z,101078.60
2018-05-31T10:58:15.720Z,101070.16
2018-05-31T11:00:42.621Z,101075.30
2018-05-31T11:03:08.530Z,101066.55
2018-05-31T11:05:34.596Z,101071.96
2018-05-31T11:08:00.784Z,101074.39
2018-05-31T11:10:26.678Z,101071.14
2018-05-31T11:12:52.576Z,101070.22
2018-05-31T11:15:18.525Z,101075.89
2018-05-31T11:17:44.578Z,101073.02
2018-05-31T11:20:10.471Z,101068.80
2018-05-31T11:22:36.420Z,101057.86
2018-05-31T11:25:02.347Z,101071.86
2018-05-31T11:27:28.227Z,101071.21
2018-05-31T11:29:55.105Z,101073.82
2018-05-31T11:32:21.008Z,101077.95
2018-05-31T11:34:46.910Z,101070.73
2018-05-31T11:37:12.856Z,101063.31
2018-05-31T11:39:38.759Z,101057.52
2018-05-31T11:42:04.788Z,101054.95
2018-05-31T11:44:30.739Z,101055.02
2018-05-31T11:46:56.671Z,101051.50
2018-05-31T11:49:22.563Z,101049.09
2018-05-31T11:51:48.537Z,101053.33
2018-05-31T11:54:14.580Z,101046.19
2018-05-31T11:56:40.477Z,101045.27
2018-05-31T11:59:06.411Z,101041.23
2018-05-31T12:01:32.317Z,101037.14
2018-05-31T12:03:58.201Z,101039.98
2018-05-31T12:06:24.326Z,101035.54
2018-05-31T12:08:50.198Z,101030.22
2018-05-31T12:11:16.102Z,101030.37
2018-05-31T12:13:42.400Z,101029.61
2018-05-31T12:16:08.320Z,101028.88
2018-05-31T12:18:34.352Z,101032.23
2018-05-31T12:21:00.290Z,101032.17
2018-05-31T12:23:26.999Z,101025.26
2018-05-31T12:25:53.624Z,101020.45
2018-05-31T12:28:19.535Z,101028.94
2018-05-31T12:30:45.575Z,101021.84
2018-05-31T12:33:11.467Z,101024.75
2018-05-31T12:35:38.069Z,101024.06
2018-05-31T12:38:04.780Z,101015.19
2018-05-31T12:40:30.663Z,101014.10
2018-05-31T12:42:56.764Z,101019.95
2018-05-31T12:45:22.646Z,101011.20
2018-05-31T12:47:48.559Z,101010.30
2018-05-31T12:50:14.562Z,101013.96
2018-05-31T12:52:40.498Z,101010.05
2018-05-31T12:55:06.504Z,101013.79
2018-05-31T12:57:32.448Z,101006.58
2018-05-31T12:59:58.351Z,101011.50
2018-05-31T13:02:24.258Z,101006.80
2018-05-31T13:04:50.237Z,101005.50
2018-05-31T13:07:16.271Z,101009.69
2018-05-31T13:09:42.172Z,101003.92
2018-05-31T13:12:08.120Z,101000.80
2018-05-31T13:14:34.045Z,101000.42
2018-05-31T13:16:59.943Z,101002.98
2018-05-31T13:19:26.373Z,101003.59
2018-05-31T13:21:52.298Z,100991.91
2018-05-31T13:24:18.183Z,100996.69
2018-05-31T13:26:44.184Z,100995.77
2018-05-31T13:29:10.175Z,100993.73
2018-05-31T13:31:36.223Z,100995.72
2018-05-31T13:34:02.236Z,100996.80
2018-05-31T13:36:28.145Z,100995.91
2018-05-31T13:38:54.065Z,100999.38
2018-05-31T13:41:20.008Z,100985.28
2018-05-31T13:43:46.050Z,100986.47
2018-05-31T13:46:12.735Z,100979.63
2018-05-31T13:48:38.735Z,100979.08
2018-05-31T13:51:04.617Z,100980.59
2018-05-31T13:53:30.868Z,100974.64
2018-05-31T13:55:56.930Z,100970.97
2018-05-31T13:58:22.868Z,100972.09
2018-05-31T14:00:48.789Z,100967.48
2018-05-31T14:03:14.713Z,100970.29
2018-05-31T14:05:40.621Z,100971.85
2018-05-31T14:08:07.121Z,100971.48
2018-05-31T14:10:33.090Z,100964.38
2018-05-31T14:12:58.957Z,100959.91
2018-05-31T14:15:24.832Z,100965.20
2018-05-31T14:17:50.800Z,100960.77
2018-05-31T14:20:16.845Z,100963.13
2018-05-31T14:22:42.777Z,100966.96
2018-05-31T14:25:09.016Z,100965.20
2018-05-31T14:27:34.929Z,100959.55
2018-05-31T14:30:00.820Z,100962.03
2018-05-31T14:32:26.874Z,100954.97
2018-05-31T14:34:52.773Z,100950.92
2018-05-31T14:37:18.680Z,100951.38
2018-05-31T14:39:44.607Z,100943.42
2018-05-31T14:42:10.552Z,100941.71
2018-05-31T14:44:36.585Z,100945.36
2018-05-31T14:47:03.063Z,100944.97
2018-05-31T14:49:28.940Z,100946.54
2018-05-31T14:51:54.850Z,100948.92
2018-05-31T14:54:21.127Z,100943.86
2018-05-31T14:56:47.232Z,100944.21
2018-05-31T14:59:13.126Z,100950.38
2018-05-31T15:01:39.064Z,100946.55
2018-05-31T15:04:05.071Z,100942.30
2018-05-31T15:06:30.931Z,100945.77
2018-05-31T15:08:57.947Z,100942.47
2018-05-31T15:11:23.848Z,100942.86
2018-05-31T15:13:49.954Z,100948.17
2018-05-31T15:16:15.900Z,100947.08
2018-05-31T15:18:41.795Z,100933.18
2018-05-31T15:21:07.878Z,100932.77
2018-05-31T15:23:33.801Z,100932.67
2018-05-31T15:26:00.256Z,100931.90
2018-05-31T15:28:26.168Z,100925.35
2018-05-31T15:30:52.121Z,100932.48
2018-05-31T15:33:18.144Z,100929.34
2018-05-31T15:35:44.055Z,100924.75
2018-05-31T15:38:09.985Z,100922.39
2018-05-31T15:40:36.749Z,100920.14
2018-05-31T15:43:02.661Z,100925.34
2018-05-31T15:45:28.748Z,100920.55
2018-05-31T15:47:54.666Z,100911.92
2018-05-31T15:50:20.667Z,100915.52
2018-05-31T15:52:46.598Z,100917.54
2018-05-31T15:55:12.471Z,100912.57
2018-05-31T15:57:38.506Z,100916.84
2018-05-31T16:00:04.464Z,100919.73
2018-05-31T16:02:30.346Z,100916.27
2018-05-31T16:04:56.232Z,100912.20
2018-05-31T16:07:22.194Z,100907.33
2018-05-31T16:09:48.239Z,100908.33
2018-05-31T16:12:14.160Z,100905.35
2018-05-31T16:14:40.084Z,100908.98
2018-05-31T16:17:05.964Z,100914.20
2018-05-31T16:19:31.847Z,100903.42
2018-05-31T16:21:58.351Z,100904.05
2018-05-31T16:24:25.230Z,100906.41
2018-05-31T16:26:51.131Z,100909.52
2018-05-31T16:29:17.140Z,100903.97
2018-05-31T16:31:43.041Z,100900.67
2018-05-31T16:34:09.072Z,100906.06
2018-05-31T16:36:34.997Z,100903.31
2018-05-31T16:39:00.871Z,100899.51
2018-05-31T16:41:27.806Z,100910.20
2018-05-31T16:43:59.819Z,100909.50
2018-05-31T16:46:25.873Z,100906.72
2018-05-31T16:48:51.784Z,100905.22
2018-05-31T16:51:17.741Z,100902.63
2018-05-31T16:53:43.629Z,100901.53
2018-05-31T16:56:09.534Z,100900.09
2018-05-31T16:58:35.533Z,100901.49
2018-05-31T17:01:01.450Z,100906.88
2018-05-31T17:03:27.349Z,100896.38
2018-05-31T17:05:53.299Z,100900.57
2018-05-31T17:08:19.289Z,100904.52
2018-05-31T17:10:45.178Z,100900.70
2018-05-31T17:13:11.163Z,100902.58
2018-05-31T17:15:37.055Z,100896.64
2018-05-31T17:18:02.968Z,100903.17
2018-05-31T17:20:29.023Z,100905.23
2018-05-31T17:22:54.912Z,100902.91
2018-05-31T17:25:20.816Z,100901.87
2018-05-31T17:27:46.750Z,100905.46
2018-05-31T17:30:12.640Z,100905.56
2018-05-31T17:32:38.620Z,100903.77
2018-05-31T17:35:04.543Z,100901.91
2018-05-31T17:37:31.200Z,100901.72
2018-05-31T17:39:57.656Z,100890.97
2018-05-31T17:42:23.661Z,100898.41
2018-05-31T17:44:49.980Z,100898.83
2018-05-31T17:47:15.877Z,100896.59
2018-05-31T17:49:41.809Z,100895.63
2018-05-31T17:52:07.731Z,100888.95
2018-05-31T17:54:33.606Z,100903.73
2018-05-31T17:56:59.648Z,100907.09
2018-05-31T17:59:25.549Z,100907.50
2018-05-31T18:01:51.436Z,100906.34
2018-05-31T18:04:17.362Z,100905.13
2018-05-31T18:06:43.260Z,100902.25
2018-05-31T18:09:09.231Z,100907.66
2018-05-31T18:11:35.157Z,100905.05
2018-05-31T18:14:01.074Z,100906.16
2018-05-31T18:16:26.953Z,100904.67
2018-05-31T18:18:52.896Z,100905.63
2018-05-31T18:21:18.874Z,100906.39
2018-05-31T18:23:44.845Z,100909.32
2018-05-31T18:26:10.915Z,100907.25
2018-05-31T18:28:36.800Z,100907.34
2018-05-31T18:31:03.717Z,100906.48
2018-05-31T18:33:29.729Z,100918.09
2018-05-31T18:35:55.615Z,100919.00
2018-05-31T18:38:21.528Z,100923.20
2018-05-31T18:40:47.475Z,100921.69
2018-05-31T18:43:13.347Z,100919.58
2018-05-31T18:45:39.331Z,100921.32
2018-05-31T18:48:05.257Z,100926.09
2018-05-31T18:50:31.159Z,100922.36
2018-05-31T18:52:57.058Z,100925.48
2018-05-31T18:55:23.008Z,100922.61
2018-05-31T18:57:48.974Z,100930.28
2018-05-31T19:00:15.943Z,100927.97
2018-05-31T19:02:41.855Z,100925.56
2018-05-31T19:05:08.287Z,100934.50
2018-05-31T19:07:34.190Z,100938.47
2018-05-31T19:10:00.602Z,100941.39
2018-05-31T19:12:32.639Z,100948.34
2018-05-31T19:14:59.411Z,100942.21
2018-05-31T19:17:25.405Z,100945.10
2018-05-31T19:19:54.308Z,100950.67
2018-05-31T19:22:21.265Z,100952.61
2018-05-31T19:24:53.204Z,100953.41
2018-05-31T19:27:19.084Z,100965.03
2018-05-31T19:29:44.981Z,100975.14
2018-05-31T19:32:11.283Z,100967.88
2018-05-31T19:34:37.231Z,100977.39
2018-05-31T19:37:09.299Z,100974.38
2018-05-31T19:39:35.211Z,100973.20
2018-05-31T19:42:01.111Z,100978.95
2018-05-31T19:44:33.036Z,100977.17
2018-05-31T19:46:59.047Z,100979.70
2018-05-31T19:49:24.960Z,100983.55
2018-05-31T19:51:57.085Z,100985.06
2018-05-31T19:54:23.012Z,100990.17
2018-05-31T19:56:48.904Z,100981.57
2018-05-31T19:59:21.660Z,100980.50
2018-05-31T20:01:54.118Z,100982.70
2018-05-31T20:04:19.989Z,100977.81
2018-05-31T20:06:45.905Z,100983.08
2018-05-31T20:09:11.848Z,100980.55
2018-05-31T20:11:37.829Z,100976.88
2018-05-31T20:14:03.741Z,100975.14
2018-05-31T20:16:29.714Z,100974.12
2018-05-31T20:18:55.618Z,100971.55
2018-05-31T20:21:21.514Z,100983.27
2018-05-31T20:23:47.563Z,100974.42
2018-05-31T20:26:13.453Z,100987.45
2018-05-31T20:28:39.408Z,100982.83
2018-05-31T20:31:05.365Z,100987.67
2018-05-31T20:33:31.251Z,100996.41
2018-05-31T20:35:57.212Z,101001.08
2018-05-31T20:38:23.126Z,100993.08
2018-05-31T20:40:49.824Z,100999.03
2018-05-31T20:43:15.705Z,100995.73
2018-05-31T20:45:41.648Z,100991.59
2018-05-31T20:48:07.607Z,100987.42
2018-05-31T20:50:33.509Z,100990.70
2018-05-31T20:52:59.456Z,100992.21
2018-05-31T20:55:25.393Z,100991.74
2018-05-31T20:57:51.288Z,100993.57
2018-05-31T21:00:17.318Z,100993.09
2018-05-31T21:02:43.212Z,100993.30
2018-05-31T21:05:09.086Z,100996.19
2018-05-31T21:07:35.101Z,100989.31
2018-05-31T21:10:00.993Z,100993.37
2018-05-31T21:12:26.970Z,100990.35
2018-05-31T21:14:52.920Z,100993.41
2018-05-31T21:17:18.791Z,100995.33
2018-05-31T21:19:44.679Z,100992.62
2018-05-31T21:22:10.609Z,101000.45
2018-05-31T21:24:36.584Z,100996.98
2018-05-31T21:27:02.543Z,100997.32
2018-05-31T21:29:28.502Z,100989.45
2018-05-31T21:31:54.380Z,100987.84
2018-05-31T21:34:20.277Z,100985.06
2018-05-31T21:36:46.285Z,100992.41
2018-05-31T21:39:12.197Z,100985.49
2018-05-31T21:41:38.089Z,100987.49
2018-05-31T21:44:04.328Z,100986.31
2018-05-31T21:46:31.469Z,100983.69
2018-05-31T21:48:57.439Z,100982.49
2018-05-31T21:51:23.355Z,100980.77
2018-05-31T21:53:49.468Z,100976.24
2018-05-31T21:56:15.336Z,100974.80
2018-05-31T21:58:41.280Z,100981.06
2018-05-31T22:01:08.047Z,100976.53
2018-05-31T22:03:33.969Z,100980.78
2018-05-31T22:06:00.812Z,100979.73
2018-05-31T22:08:26.688Z,100981.44
2018-05-31T22:10:52.577Z,100978.81
2018-05-31T22:13:18.705Z,100976.52
2018-05-31T22:15:44.676Z,100974.59
2018-05-31T22:18:10.567Z,100975.44
2018-05-31T22:20:36.491Z,100981.56
2018-05-31T22:23:02.426Z,100980.67
2018-05-31T22:25:28.418Z,100986.02
2018-05-31T22:27:54.432Z,100982.19
2018-05-31T22:30:20.314Z,100983.28
2018-05-31T22:32:46.204Z,100975.95
2018-05-31T22:35:12.125Z,100977.13
2018-05-31T22:37:38.129Z,100980.98
2018-05-31T22:40:04.078Z,100981.17
2018-05-31T22:42:30.292Z,100977.81
2018-05-31T22:44:56.198Z,100969.67
2018-05-31T22:47:22.091Z,100969.52
2018-05-31T22:49:48.161Z,100966.34
2018-05-31T22:52:14.081Z,100971.09
2018-05-31T22:54:39.968Z,100966.79
2018-05-31T22:57:06.679Z,100968.17
2018-05-31T22:59:32.568Z,100959.94
2018-05-31T23:01:58.545Z,100966.02
2018-05-31T23:04:24.745Z,100964.68
2018-05-31T23:06:50.619Z,100969.51
2018-05-31T23:09:16.511Z,100966.06
2018-05-31T23:11:42.816Z,100968.95
2018-05-31T23:14:08.786Z,100967.50
2018-05-31T23:16:34.720Z,100966.81
2018-05-31T23:19:00.697Z,100960.30
2018-05-31T23:21:26.582Z,100967.69
2018-05-31T23:23:52.473Z,100967.52
2018-05-31T23:26:19.352Z,100970.19
2018-05-31T23:28:45.274Z,100972.91
2018-05-31T23:31:11.160Z,100969.03
2018-05-31T23:33:37.086Z,100965.49
2018-05-31T23:36:02.999Z,100967.95
2018-05-31T23:38:28.996Z,100968.56
2018-05-31T23:40:54.981Z,100967.52
2018-05-31T23:43:20.861Z,100961.31
2018-05-31T23:45:46.817Z,100959.68
2018-05-31T23:48:12.776Z,100957.44
2018-05-31T23:50:38.791Z,100966.24
2018-05-31T23:53:04.763Z,100968.44
2018-05-31T23:55:30.710Z,100961.15
2018-05-31T23:57:56.592Z,100968.44
